Time;durP1;ratioP1;P1;durP2;ratioP2;P2;SDS_P1;SDS_P2;PMS_P1;PMS_P2;Temp;Humidity;BMP_temperature;BMP_pressure;BME280_temperature;BME280_humidity;BME280_pressure;Samples;Min_cycle;Max_cycle;Signal;HPM_P1;HPM_P2
2021/09/21 00:02:02;;;;;;;12.98;5.13;;;17.90;69.70;;;;;;5086962;28;20420;-70
2021/09/21 00:04:28;;;;;;;9.05;5.30;;;17.90;69.80;;;;;;5086410;28;20025;-70
2021/09/21 00:06:55;;;;;;;9.95;5.55;;;17.90;69.90;;;;;;5080855;28;20020;-70
2021/09/21 00:09:21;;;;;;;6.45;4.75;;;17.90;70.00;;;;;;5084189;28;20039;-70
2021/09/21 00:11:46;;;;;;;8.68;5.20;;;17.90;70.00;;;;;;5082646;28;20048;-70
2021/09/21 00:14:12;;;;;;;7.18;4.88;;;17.90;70.10;;;;;;5082262;28;20035;-70
2021/09/21 00:16:37;;;;;;;6.75;4.97;;;17.90;70.10;;;;;;5080054;28;20028;-70
2021/09/21 00:19:03;;;;;;;11.10;5.10;;;17.80;70.20;;;;;;5083558;28;20111;-70
2021/09/21 00:21:29;;;;;;;7.60;4.53;;;17.80;70.40;;;;;;5083685;28;20024;-70
2021/09/21 00:23:54;;;;;;;9.15;4.82;;;17.80;70.60;;;;;;5091998;28;20028;-70
2021/09/21 00:26:20;;;;;;;7.10;4.70;;;17.80;70.60;;;;;;5080622;28;20070;-70
2021/09/21 00:28:47;;;;;;;8.82;5.10;;;17.80;70.60;;;;;;5083200;28;20438;-70
2021/09/21 00:31:14;;;;;;;8.63;4.80;;;17.80;70.80;;;;;;5080412;28;20089;-70
2021/09/21 00:34:04;;;;;;;10.35;4.68;;;17.80;70.70;;;;;;5080038;28;20119;-70
2021/09/21 00:36:30;;;;;;;8.25;4.90;;;17.80;70.80;;;;;;5073049;28;20074;-71
2021/09/21 00:38:56;;;;;;;8.68;5.07;;;17.80;70.90;;;;;;5087791;28;20123;-70
2021/09/21 00:41:21;;;;;;;9.68;5.85;;;17.80;71.00;;;;;;5076708;28;20120;-70
2021/09/21 00:43:47;;;;;;;8.95;5.82;;;17.80;71.00;;;;;;5073290;28;20446;-70
2021/09/21 00:46:13;;;;;;;8.93;5.45;;;17.70;71.00;;;;;;5079683;28;20052;-70
2021/09/21 00:48:38;;;;;;;9.15;5.32;;;17.70;71.10;;;;;;5086505;28;20040;-70
2021/09/21 00:51:05;;;;;;;7.90;5.15;;;17.70;71.10;;;;;;5076552;28;20047;-70
2021/09/21 00:53:31;;;;;;;8.70;5.28;;;17.80;71.30;;;;;;5089197;28;20035;-70
2021/09/21 00:55:57;;;;;;;8.63;4.97;;;17.70;71.60;;;;;;5076146;28;20016;-70
2021/09/21 00:58:23;;;;;;;8.05;5.50;;;17.70;71.80;;;;;;5074138;28;20388;-70
2021/09/21 01:00:48;;;;;;;11.35;5.47;;;17.70;72.00;;;;;;5081806;28;20076;-70
2021/09/21 01:03:16;;;;;;;14.35;5.57;;;17.70;72.40;;;;;;5076165;28;20029;-70
2021/09/21 01:05:42;;;;;;;12.98;5.97;;;17.70;72.30;;;;;;5076702;28;20498;-70
2021/09/21 01:08:08;;;;;;;8.40;5.57;;;17.70;72.40;;;;;;5086462;28;20028;-70
2021/09/21 01:10:33;;;;;;;11.00;5.72;;;17.70;72.40;;;;;;5077907;28;20040;-70
2021/09/21 01:12:59;;;;;;;10.60;5.38;;;17.70;72.30;;;;;;5087243;28;20025;-70
2021/09/21 01:15:26;;;;;;;9.55;5.53;;;17.70;72.40;;;;;;5076894;28;20368;-70
2021/09/21 01:17:52;;;;;;;9.65;5.80;;;17.60;72.00;;;;;;5089242;28;20039;-70
2021/09/21 01:20:18;;;;;;;10.45;5.85;;;17.70;72.00;;;;;;5080415;28;20047;-70
2021/09/21 01:22:44;;;;;;;9.80;5.53;;;17.70;72.00;;;;;;5089958;28;20043;-70
2021/09/21 01:25:12;;;;;;;8.30;5.15;;;17.70;72.00;;;;;;5080822;28;20024;-70
2021/09/21 01:27:43;;;;;;;10.45;5.43;;;17.70;72.00;;;;;;5078265;28;20032;-70
2021/09/21 01:30:12;;;;;;;12.57;5.80;;;17.70;72.00;;;;;;5075248;28;20384;-70
2021/09/21 01:32:38;;;;;;;10.48;6.40;;;17.70;72.00;;;;;;5091061;28;20024;-70
2021/09/21 01:35:05;;;;;;;8.15;5.20;;;17.70;72.00;;;;;;5085448;28;20094;-70
2021/09/21 01:37:31;;;;;;;9.13;6.18;;;17.70;72.00;;;;;;5077148;28;20106;-70
2021/09/21 01:39:57;;;;;;;13.30;5.40;;;17.70;72.00;;;;;;5077571;28;20032;-71
2021/09/21 01:42:23;;;;;;;7.32;5.07;;;17.70;72.30;;;;;;5079229;28;20029;-70
2021/09/21 01:44:48;;;;;;;9.00;5.65;;;17.70;72.70;;;;;;5073227;28;20039;-70
2021/09/21 01:47:16;;;;;;;9.15;4.88;;;17.70;72.90;;;;;;5076454;28;20024;-70
2021/09/21 01:49:55;;;;;;;10.15;5.97;;;17.70;73.10;;;;;;5082074;28;20044;-70
2021/09/21 01:52:28;;;;;;;14.40;4.93;;;17.60;73.20;;;;;;5084819;28;20039;-70
2021/09/21 02:00:36;;;;;;;10.38;5.00;;;17.60;73.90;;;;;;5083776;28;20381;-70
2021/09/21 02:03:03;;;;;;;9.98;5.10;;;17.60;74.10;;;;;;5073558;28;20116;-70
2021/09/21 02:05:29;;;;;;;8.63;5.30;;;17.50;74.30;;;;;;5085159;28;20059;-70
2021/09/21 02:07:54;;;;;;;6.78;4.47;;;17.50;75.00;;;;;;5074588;28;20060;-70
2021/09/21 02:10:20;;;;;;;7.00;4.45;;;17.50;74.20;;;;;;5078319;28;20044;-70
2021/09/21 02:12:46;;;;;;;7.82;4.88;;;17.40;74.00;;;;;;5072784;28;20029;-70
2021/09/21 02:15:12;;;;;;;7.72;4.22;;;17.50;74.00;;;;;;5072358;28;20487;-70
2021/09/21 02:17:37;;;;;;;8.40;4.32;;;17.50;74.00;;;;;;5072657;28;20185;-70
2021/09/21 02:20:04;;;;;;;7.38;4.25;;;17.40;74.10;;;;;;5072772;28;20395;-70
2021/09/21 02:22:32;;;;;;;6.38;3.80;;;17.40;74.20;;;;;;5084625;28;20032;-70
2021/09/21 02:24:58;;;;;;;7.32;4.35;;;17.40;74.30;;;;;;5078036;28;20027;-70
2021/09/21 02:27:25;;;;;;;5.72;3.33;;;17.30;74.40;;;;;;5091484;28;20020;-70
2021/09/21 02:29:54;;;;;;;5.40;3.80;;;17.30;74.00;;;;;;5092622;28;20036;-70
2021/09/21 02:32:20;;;;;;;8.85;3.63;;;17.30;74.00;;;;;;5078394;28;20024;-70
2021/09/21 02:34:45;;;;;;;8.95;3.72;;;17.20;74.00;;;;;;5088191;28;20044;-70
2021/09/21 02:37:15;;;;;;;7.60;4.45;;;17.20;73.80;;;;;;5080648;28;20071;-70
2021/09/21 02:39:41;;;;;;;4.43;2.35;;;17.20;73.70;;;;;;5088781;28;20388;-70
2021/09/21 02:42:07;;;;;;;6.25;3.17;;;17.10;73.70;;;;;;5085480;27;20036;-70
2021/09/21 02:44:34;;;;;;;5.10;3.00;;;17.10;73.50;;;;;;5081453;28;20036;-70
2021/09/21 02:47:01;;;;;;;7.40;3.42;;;17.10;73.40;;;;;;5082008;28;20039;-70
2021/09/21 02:49:26;;;;;;;3.88;2.10;;;17.00;72.90;;;;;;5078710;28;20033;-70
2021/09/21 02:51:52;;;;;;;7.85;1.75;;;17.00;72.80;;;;;;5092653;28;20451;-70
2021/09/21 02:54:18;;;;;;;5.97;2.30;;;17.00;72.70;;;;;;5079944;28;20032;-70
2021/09/21 02:56:43;;;;;;;4.32;2.47;;;17.00;72.40;;;;;;5081592;28;20116;-70
2021/09/21 02:59:12;;;;;;;5.93;2.47;;;16.90;72.10;;;;;;5093290;28;20077;-70
2021/09/21 03:01:37;;;;;;;5.40;2.78;;;16.90;72.10;;;;;;5094891;28;20032;-70
2021/09/21 03:04:08;;;;;;;4.40;2.45;;;16.90;72.00;;;;;;5081495;28;20051;-70
2021/09/21 03:06:36;;;;;;;5.65;3.13;;;16.80;72.00;;;;;;5092704;28;20032;-70
2021/09/21 03:09:12;;;;;;;4.65;3.08;;;16.80;71.80;;;;;;5099529;28;20123;-70
2021/09/21 03:11:44;;;;;;;10.15;3.30;;;16.80;71.70;;;;;;5088563;28;20417;-70
2021/09/21 03:19:24;;;;;;;6.20;3.33;;;16.80;71.80;;;;;;5082689;28;20419;-70
2021/09/21 03:21:53;;;;;;;8.32;3.72;;;16.80;71.80;;;;;;5094382;28;20467;-70
2021/09/21 03:24:19;;;;;;;5.38;3.47;;;16.80;71.60;;;;;;5092762;28;20028;-70
2021/09/21 03:26:45;;;;;;;5.07;3.63;;;16.80;71.50;;;;;;5082901;28;20114;-70
2021/09/21 03:29:11;;;;;;;7.53;4.07;;;16.90;71.50;;;;;;5075008;28;20040;-70
2021/09/21 03:31:36;;;;;;;7.75;3.60;;;16.80;71.30;;;;;;5082658;28;20069;-70
2021/09/21 03:34:02;;;;;;;6.78;3.75;;;16.90;71.40;;;;;;5103682;28;20024;-70
2021/09/21 03:36:28;;;;;;;8.35;3.70;;;16.90;71.50;;;;;;5080604;28;20035;-70
2021/09/21 03:38:53;;;;;;;8.32;3.88;;;16.90;71.50;;;;;;5090916;28;20043;-70
2021/09/21 03:41:19;;;;;;;4.82;2.95;;;16.90;71.60;;;;;;5083368;28;20443;-70
2021/09/21 03:43:45;;;;;;;6.40;3.55;;;16.90;71.80;;;;;;5088592;28;20037;-70
2021/09/21 03:46:13;;;;;;;8.02;3.92;;;16.90;71.80;;;;;;5085553;28;20145;-70
2021/09/21 03:48:39;;;;;;;5.90;3.42;;;16.90;71.90;;;;;;5092356;28;20043;-70
2021/09/21 03:51:05;;;;;;;7.85;3.70;;;16.90;71.90;;;;;;5093087;28;20024;-70
2021/09/21 03:53:30;;;;;;;7.60;4.38;;;16.90;71.90;;;;;;5079026;28;20387;-70
2021/09/21 03:55:56;;;;;;;9.55;4.10;;;16.90;71.80;;;;;;5086284;28;20033;-70
2021/09/21 03:58:21;;;;;;;5.25;3.20;;;16.80;71.80;;;;;;5074810;28;20029;-70
2021/09/21 04:00:47;;;;;;;8.43;4.15;;;16.80;71.90;;;;;;5091781;28;20028;-70
2021/09/21 04:03:13;;;;;;;10.00;3.83;;;16.80;71.90;;;;;;5083096;28;20052;-70
2021/09/21 04:05:39;;;;;;;9.02;3.47;;;16.80;72.00;;;;;;5088939;28;20058;-70
2021/09/21 04:08:04;;;;;;;8.57;3.53;;;16.80;72.00;;;;;;5084917;28;20028;-70
2021/09/21 04:10:30;;;;;;;6.25;3.40;;;16.80;71.80;;;;;;5072883;28;20078;-70
2021/09/21 04:12:56;;;;;;;6.05;3.45;;;16.80;71.60;;;;;;5074087;28;20056;-70
2021/09/21 04:15:22;;;;;;;10.45;4.10;;;16.80;71.70;;;;;;5074554;28;20420;-70
2021/09/21 04:17:47;;;;;;;6.78;3.67;;;16.70;71.60;;;;;;5087319;28;20422;-70
2021/09/21 04:20:13;;;;;;;7.03;3.25;;;16.70;71.80;;;;;;5081311;28;20047;-70
2021/09/21 04:22:42;;;;;;;6.40;3.88;;;16.70;71.80;;;;;;5091459;28;20471;-70
2021/09/21 04:25:09;;;;;;;8.02;3.55;;;16.60;71.70;;;;;;5087230;28;20032;-70
2021/09/21 04:27:35;;;;;;;7.57;3.58;;;16.70;71.60;;;;;;5076429;28;20119;-70
2021/09/21 04:30:02;;;;;;;7.20;4.43;;;16.70;71.70;;;;;;5076318;28;20143;-70
2021/09/21 04:32:28;;;;;;;5.70;3.50;;;16.60;71.50;;;;;;5082763;28;20021;-70
2021/09/21 04:34:54;;;;;;;5.22;3.15;;;16.60;71.50;;;;;;5088497;28;20050;-70
2021/09/21 04:37:21;;;;;;;7.13;3.22;;;16.50;71.60;;;;;;5075862;28;20040;-70
2021/09/21 04:39:47;;;;;;;5.57;3.40;;;16.50;71.50;;;;;;5074688;28;20093;-69
2021/09/21 04:42:12;;;;;;;8.95;3.33;;;16.50;71.40;;;;;;5089689;28;20032;-70
2021/09/21 04:44:39;;;;;;;9.63;3.72;;;16.50;71.60;;;;;;5090673;28;20034;-69
2021/09/21 04:47:05;;;;;;;7.07;3.08;;;16.40;71.60;;;;;;5073127;28;20033;-71
2021/09/21 04:49:31;;;;;;;6.78;4.10;;;16.40;71.80;;;;;;5076334;28;20119;-73
2021/09/21 04:51:57;;;;;;;6.68;4.20;;;16.30;71.60;;;;;;5099727;28;20028;-70
2021/09/21 04:54:22;;;;;;;8.70;4.00;;;16.30;71.80;;;;;;5085295;28;20039;-71
2021/09/21 04:56:48;;;;;;;6.82;2.90;;;16.30;71.90;;;;;;5074245;28;20036;-70
2021/09/21 04:59:14;;;;;;;7.25;4.00;;;16.30;72.10;;;;;;5077632;28;20035;-70
2021/09/21 05:01:39;;;;;;;12.95;3.92;;;16.30;72.00;;;;;;5079715;28;20040;-70
2021/09/21 05:04:05;;;;;;;5.80;3.25;;;16.20;71.80;;;;;;5072586;28;20112;-73
2021/09/21 05:06:30;;;;;;;7.05;4.10;;;16.20;71.90;;;;;;5073600;28;20052;-72
2021/09/21 05:08:56;;;;;;;10.57;4.35;;;16.20;71.80;;;;;;5077899;28;20064;-73
2021/09/21 05:11:22;;;;;;;7.57;3.95;;;16.20;71.80;;;;;;5077384;28;20513;-72
2021/09/21 05:13:47;;;;;;;7.53;2.97;;;16.10;71.70;;;;;;5075626;28;20035;-72
2021/09/21 05:16:13;;;;;;;5.35;3.28;;;16.10;71.80;;;;;;5079104;28;20036;-74
2021/09/21 05:18:39;;;;;;;6.38;3.85;;;16.10;71.70;;;;;;5082393;28;20025;-76
2021/09/21 05:21:04;;;;;;;5.15;3.00;;;16.00;71.50;;;;;;5088081;28;20020;-70
2021/09/21 05:23:30;;;;;;;6.95;3.50;;;16.00;71.70;;;;;;5085534;28;20058;-70
2021/09/21 05:25:56;;;;;;;5.70;3.95;;;16.00;71.70;;;;;;5090221;28;20016;-70
2021/09/21 05:28:21;;;;;;;7.88;2.83;;;16.00;71.60;;;;;;5075117;28;20483;-69
2021/09/21 05:30:47;;;;;;;6.30;3.75;;;15.90;71.50;;;;;;5090584;28;20772;-71
2021/09/21 05:33:12;;;;;;;8.45;3.17;;;15.90;71.40;;;;;;5083983;28;20422;-71
2021/09/21 05:35:38;;;;;;;12.73;2.60;;;15.90;71.50;;;;;;5074252;28;20360;-70
2021/09/21 05:38:04;;;;;;;7.35;3.75;;;15.80;71.50;;;;;;5073391;28;20098;-72
2021/09/21 05:40:29;;;;;;;6.53;3.53;;;15.80;71.40;;;;;;5087781;28;20029;-73
2021/09/21 05:42:55;;;;;;;6.57;3.35;;;15.80;71.90;;;;;;5084339;28;20025;-72
2021/09/21 05:45:21;;;;;;;4.65;2.53;;;15.80;71.30;;;;;;5080805;28;20460;-72
2021/09/21 05:47:48;;;;;;;6.70;3.58;;;15.80;71.30;;;;;;5084731;28;20464;-71
2021/09/21 05:50:14;;;;;;;6.90;3.28;;;15.70;71.20;;;;;;5088759;28;20040;-71
2021/09/21 05:52:41;;;;;;;6.10;2.80;;;15.70;71.30;;;;;;5072175;28;20028;-69
2021/09/21 05:55:08;;;;;;;9.10;3.13;;;15.70;71.60;;;;;;5078181;28;20037;-70
2021/09/21 05:57:34;;;;;;;6.03;3.13;;;15.70;71.50;;;;;;5091498;28;20056;-70
2021/09/21 05:59:59;;;;;;;4.75;3.05;;;15.70;71.40;;;;;;5092786;28;20039;-70
2021/09/21 06:02:25;;;;;;;5.53;3.75;;;15.60;71.30;;;;;;5084434;28;20036;-70
2021/09/21 06:04:51;;;;;;;3.63;2.28;;;15.60;71.40;;;;;;5095975;28;20035;-70
2021/09/21 06:07:18;;;;;;;9.25;3.40;;;15.60;71.40;;;;;;5080918;28;20368;-71
2021/09/21 06:09:43;;;;;;;6.65;3.05;;;15.60;71.50;;;;;;5088511;28;20380;-70
2021/09/21 06:12:09;;;;;;;7.53;3.72;;;15.60;72.00;;;;;;5085034;28;20115;-70
2021/09/21 06:14:35;;;;;;;8.38;3.20;;;15.60;71.40;;;;;;5079400;28;20069;-70
2021/09/21 06:17:00;;;;;;;6.72;3.58;;;15.50;71.30;;;;;;5074855;28;20037;-70
2021/09/21 06:19:26;;;;;;;6.68;3.47;;;15.50;71.30;;;;;;5090562;28;20122;-71
2021/09/21 06:21:52;;;;;;;9.93;3.33;;;15.50;71.50;;;;;;5082646;28;20046;-70
2021/09/21 06:24:18;;;;;;;7.82;4.35;;;15.50;71.50;;;;;;5085045;28;20082;-70
2021/09/21 06:26:43;;;;;;;11.85;3.55;;;15.50;71.50;;;;;;5091616;28;20028;-70
2021/09/21 06:29:09;;;;;;;8.25;3.53;;;15.50;71.50;;;;;;5093201;28;20040;-70
2021/09/21 06:31:35;;;;;;;5.65;3.13;;;15.50;71.50;;;;;;5081651;28;20024;-70
2021/09/21 06:34:01;;;;;;;6.28;3.60;;;15.50;71.50;;;;;;5088039;28;20032;-70
2021/09/21 06:36:27;;;;;;;6.40;3.05;;;15.50;71.40;;;;;;5083985;28;20024;-70
2021/09/21 06:38:53;;;;;;;8.13;3.85;;;15.50;71.40;;;;;;5100273;28;20123;-70
2021/09/21 06:41:18;;;;;;;6.82;2.50;;;15.40;71.70;;;;;;5083485;28;20028;-70
2021/09/21 06:43:44;;;;;;;8.57;3.30;;;15.40;71.50;;;;;;5081115;28;20040;-70
2021/09/21 06:46:09;;;;;;;7.70;2.78;;;15.40;71.60;;;;;;5087382;28;20048;-70
2021/09/21 06:48:39;;;;;;;5.50;3.40;;;15.40;71.60;;;;;;5087787;28;20032;-70
2021/09/21 06:51:06;;;;;;;7.45;3.58;;;15.40;71.80;;;;;;5087901;28;20057;-70
2021/09/21 06:53:31;;;;;;;7.90;4.15;;;15.40;71.80;;;;;;5088977;28;20063;-70
2021/09/21 06:55:57;;;;;;;5.30;3.10;;;15.40;71.80;;;;;;5090491;28;20051;-70
2021/09/21 06:58:22;;;;;;;3.53;2.55;;;15.30;72.00;;;;;;5090867;28;20028;-70
2021/09/21 07:00:49;;;;;;;6.63;3.90;;;15.40;72.10;;;;;;5088698;28;20455;-70
2021/09/21 07:03:15;;;;;;;6.68;2.65;;;15.30;72.10;;;;;;5087009;28;20035;-70
2021/09/21 07:05:44;;;;;;;6.45;2.97;;;15.30;72.90;;;;;;5090968;28;20031;-70
2021/09/21 07:08:09;;;;;;;3.60;2.15;;;15.30;72.20;;;;;;5085250;28;20075;-70
2021/09/21 07:10:38;;;;;;;6.90;2.58;;;15.30;72.30;;;;;;5074037;28;20126;-70
2021/09/21 07:13:04;;;;;;;3.75;2.58;;;15.30;72.50;;;;;;5086603;28;20468;-70
2021/09/21 07:15:29;;;;;;;4.00;1.75;;;15.30;72.70;;;;;;5074459;28;20036;-70
2021/09/21 07:17:56;;;;;;;2.78;1.23;;;15.30;72.80;;;;;;5079947;28;20048;-70
2021/09/21 07:20:24;;;;;;;2.92;1.42;;;15.20;73.10;;;;;;5082151;28;20086;-70
2021/09/21 07:22:50;;;;;;;2.75;1.52;;;15.20;73.40;;;;;;5077775;28;20467;-70
2021/09/21 07:25:18;;;;;;;3.95;2.35;;;15.20;73.60;;;;;;5092750;28;20036;-70
2021/09/21 07:27:43;;;;;;;3.30;1.45;;;15.20;73.90;;;;;;5078066;28;20037;-70
2021/09/21 07:30:09;;;;;;;20.80;2.63;;;15.20;74.00;;;;;;5080018;28;20047;-70
2021/09/21 07:32:39;;;;;;;2.95;1.98;;;15.20;74.30;;;;;;5094168;28;20468;-70
2021/09/21 07:35:05;;;;;;;6.60;1.42;;;15.20;74.60;;;;;;5094649;28;20029;-70
2021/09/21 07:37:30;;;;;;;4.88;1.90;;;15.20;74.90;;;;;;5078620;28;20138;-70
2021/09/21 07:39:56;;;;;;;2.85;2.13;;;15.20;75.10;;;;;;5085558;28;20047;-70
2021/09/21 07:42:22;;;;;;;3.22;2.00;;;15.20;75.40;;;;;;5088537;28;20062;-70
2021/09/21 07:44:53;;;;;;;3.58;2.22;;;15.20;75.80;;;;;;5081211;28;20032;-70
2021/09/21 07:47:18;;;;;;;6.38;1.88;;;15.20;76.10;;;;;;5081804;28;20464;-70
2021/09/21 07:49:44;;;;;;;3.72;2.00;;;15.10;76.90;;;;;;5084481;28;20081;-71
2021/09/21 07:52:10;;;;;;;3.33;1.85;;;15.10;76.60;;;;;;5092258;28;20040;-69
2021/09/21 07:54:36;;;;;;;3.63;1.77;;;15.10;76.70;;;;;;5086899;28;20206;-70
2021/09/21 07:57:02;;;;;;;3.20;1.70;;;15.10;76.90;;;;;;5093004;28;20170;-70
2021/09/21 07:59:28;;;;;;;4.05;2.80;;;15.20;77.20;;;;;;5084534;28;20091;-69
2021/09/21 08:01:53;;;;;;;4.30;2.35;;;15.20;77.30;;;;;;5092693;28;20111;-69
2021/09/21 08:04:19;;;;;;;6.32;2.38;;;15.20;77.50;;;;;;5092837;28;20040;-70
2021/09/21 08:06:45;;;;;;;4.18;1.60;;;15.20;77.60;;;;;;5083630;28;20028;-69
2021/09/21 08:09:10;;;;;;;5.28;2.25;;;15.30;77.80;;;;;;5087335;28;20078;-70
2021/09/21 08:11:36;;;;;;;4.38;2.15;;;15.30;77.90;;;;;;5085872;28;20028;-70
2021/09/21 08:14:03;;;;;;;3.38;1.30;;;15.30;78.10;;;;;;5088047;28;20021;-70
2021/09/21 08:16:30;;;;;;;3.60;2.47;;;15.30;78.10;;;;;;5075274;28;20394;-69
2021/09/21 08:18:56;;;;;;;2.47;1.50;;;15.30;78.10;;;;;;5087961;28;20456;-70
2021/09/21 08:21:22;;;;;;;9.90;4.22;;;15.30;78.10;;;;;;5078680;28;20074;-70
2021/09/21 08:23:48;;;;;;;2.63;1.67;;;15.40;78.40;;;;;;5078002;28;20024;-70
2021/09/21 08:26:13;;;;;;;2.28;1.70;;;15.40;78.30;;;;;;5088427;28;20035;-70
2021/09/21 08:28:39;;;;;;;3.83;2.13;;;15.50;78.90;;;;;;5088169;28;20051;-70
2021/09/21 08:31:05;;;;;;;3.42;2.00;;;15.50;78.30;;;;;;5089910;28;20040;-70
2021/09/21 08:33:31;;;;;;;4.10;2.33;;;15.50;78.20;;;;;;5093809;28;20024;-70
2021/09/21 08:35:57;;;;;;;4.32;2.10;;;15.50;78.20;;;;;;5078788;28;20086;-70
2021/09/21 08:38:23;;;;;;;3.08;1.70;;;15.60;78.20;;;;;;5089516;28;20036;-70
2021/09/21 08:40:48;;;;;;;3.25;2.40;;;15.70;78.20;;;;;;5081865;28;20085;-70
2021/09/21 08:43:14;;;;;;;3.47;1.85;;;15.70;78.10;;;;;;5088769;28;20043;-70
2021/09/21 08:45:40;;;;;;;2.63;1.73;;;15.80;78.10;;;;;;5094035;28;20102;-70
2021/09/21 08:48:05;;;;;;;4.60;2.08;;;15.80;78.10;;;;;;5085256;28;20116;-70
2021/09/21 08:50:31;;;;;;;4.13;2.40;;;15.70;78.10;;;;;;5092979;28;20040;-70
2021/09/21 08:52:57;;;;;;;1.85;1.40;;;15.70;78.20;;;;;;5083470;28;20085;-70
2021/09/21 08:55:25;;;;;;;3.13;2.08;;;15.80;78.40;;;;;;5089936;28;20028;-70
2021/09/21 08:57:51;;;;;;;2.25;1.52;;;15.80;78.40;;;;;;5081984;28;20128;-70
2021/09/21 09:00:23;;;;;;;5.70;2.25;;;15.80;78.40;;;;;;5087029;28;20066;-70
2021/09/21 09:02:49;;;;;;;5.40;2.30;;;15.90;78.50;;;;;;5073690;28;20036;-70
2021/09/21 09:05:15;;;;;;;3.83;2.22;;;15.90;78.60;;;;;;5072831;28;20038;-70
2021/09/21 09:07:50;;;;;;;2.05;1.52;;;15.90;78.70;;;;;;5082334;28;20085;-70
2021/09/21 09:10:16;;;;;;;2.17;1.42;;;15.90;78.70;;;;;;5075738;28;20074;-70
2021/09/21 09:12:42;;;;;;;3.38;2.00;;;16.00;78.70;;;;;;5090179;28;20030;-70
2021/09/21 09:15:13;;;;;;;1.77;1.50;;;16.10;78.70;;;;;;5073141;28;20029;-70
2021/09/21 09:17:51;;;;;;;2.22;1.50;;;16.10;78.80;;;;;;5081207;28;20020;-70
2021/09/21 09:20:17;;;;;;;2.58;2.03;;;16.10;78.80;;;;;;5085935;28;20027;-69
2021/09/21 09:22:43;;;;;;;5.50;2.25;;;16.20;78.90;;;;;;5080034;28;20506;-72
2021/09/21 09:25:08;;;;;;;2.72;1.25;;;16.20;78.90;;;;;;5090013;28;20024;-71
2021/09/21 09:27:41;;;;;;;2.95;2.03;;;16.20;78.90;;;;;;5077210;28;20066;-70
2021/09/21 09:30:11;;;;;;;3.73;2.43;;;16.30;79.20;;;;;;5082737;28;20036;-70
2021/09/21 09:32:50;;;;;;;2.75;1.80;;;16.30;79.30;;;;;;5087258;28;20115;-69
2021/09/21 09:35:34;;;;;;;6.53;2.15;;;16.30;79.30;;;;;;5088595;28;20036;-72
2021/09/21 09:38:04;;;;;;;2.80;2.05;;;16.40;79.50;;;;;;5072743;28;20048;-70
2021/09/21 09:40:30;;;;;;;3.58;1.88;;;16.40;79.50;;;;;;5076118;28;20031;-74
2021/09/21 09:42:56;;;;;;;3.22;2.20;;;16.40;79.50;;;;;;5079026;28;20032;-70
2021/09/21 09:45:31;;;;;;;4.78;2.65;;;16.40;79.70;;;;;;5072283;28;20036;-70
2021/09/21 09:47:58;;;;;;;8.10;2.95;;;16.50;79.80;;;;;;5081151;28;20360;-70
2021/09/21 09:50:30;;;;;;;6.57;3.15;;;16.50;79.80;;;;;;5077898;28;20127;-70
2021/09/21 09:53:09;;;;;;;4.35;2.83;;;16.60;79.90;;;;;;5077755;28;20066;-70
2021/09/21 09:55:36;;;;;;;4.90;2.30;;;16.60;79.80;;;;;;5074282;28;20020;-72
2021/09/21 09:58:04;;;;;;;3.90;2.00;;;16.70;79.90;;;;;;5072452;28;20135;-69
2021/09/21 10:00:29;;;;;;;4.55;2.75;;;16.70;80.00;;;;;;5076990;28;20032;-69
2021/09/21 10:02:55;;;;;;;8.45;2.55;;;16.80;80.00;;;;;;5079559;28;20131;-69
2021/09/21 10:05:22;;;;;;;5.28;2.70;;;16.80;80.00;;;;;;5078684;28;20380;-69
2021/09/21 10:07:47;;;;;;;8.40;2.60;;;16.90;80.10;;;;;;5078145;28;20420;-69
2021/09/21 10:10:14;;;;;;;6.57;3.10;;;16.90;80.10;;;;;;5077757;28;20123;-70
2021/09/21 10:12:40;;;;;;;4.10;1.98;;;16.90;80.10;;;;;;5090568;28;20157;-69
2021/09/21 10:15:10;;;;;;;4.20;2.30;;;17.00;80.10;;;;;;5078426;28;20060;-69
2021/09/21 10:17:36;;;;;;;5.50;2.47;;;16.90;80.10;;;;;;5072588;28;20033;-69
2021/09/21 10:20:04;;;;;;;4.70;2.10;;;17.00;80.10;;;;;;5073318;28;20033;-69
2021/09/21 10:22:34;;;;;;;3.40;2.40;;;17.10;80.30;;;;;;5081254;28;20162;-69
2021/09/21 10:25:06;;;;;;;6.95;2.83;;;17.10;80.20;;;;;;5075130;28;20040;-70
2021/09/21 10:27:35;;;;;;;4.75;2.50;;;17.20;80.20;;;;;;5078634;28;20024;-69
2021/09/21 10:30:05;;;;;;;4.63;2.20;;;17.20;80.10;;;;;;5076987;28;20123;-69
2021/09/21 10:32:31;;;;;;;3.83;1.95;;;17.30;80.20;;;;;;5079910;28;20021;-69
2021/09/21 10:34:58;;;;;;;6.05;3.10;;;17.30;80.20;;;;;;5079251;28;20039;-69
2021/09/21 10:37:31;;;;;;;3.88;2.33;;;17.30;80.10;;;;;;5065066;28;20131;-70
2021/09/21 10:40:01;;;;;;;7.68;2.92;;;17.40;80.20;;;;;;5088385;28;20032;-70
2021/09/21 10:42:27;;;;;;;9.15;3.28;;;17.40;80.20;;;;;;5087262;28;20115;-69
2021/09/21 10:44:59;;;;;;;3.92;2.67;;;17.50;80.10;;;;;;5076985;28;20472;-69
2021/09/21 10:47:30;;;;;;;4.88;2.80;;;17.50;80.00;;;;;;5075457;28;20062;-70
2021/09/21 10:50:14;;;;;;;;;;;17.50;79.90;;;;;;5080741;28;20059;-70
2021/09/21 10:52:40;;;;;;;8.43;3.55;;;17.50;79.80;;;;;;5078481;28;19913;-70
2021/09/21 10:55:12;;;;;;;5.75;2.70;;;17.60;80.00;;;;;;5075513;28;20094;-70
2021/09/21 10:57:44;;;;;;;6.97;2.92;;;17.60;80.00;;;;;;5078456;28;20066;-69
2021/09/21 11:00:16;;;;;;;8.00;2.65;;;17.70;79.90;;;;;;5076454;28;20036;-69
2021/09/21 11:02:48;;;;;;;3.92;2.40;;;17.70;79.80;;;;;;5075094;28;20438;-69
2021/09/21 11:05:16;;;;;;;5.40;2.83;;;17.70;79.80;;;;;;5074326;28;20024;-69
2021/09/21 11:07:56;;;;;;;6.15;3.55;;;17.70;79.80;;;;;;5081803;28;20078;-69
2021/09/21 11:10:27;;;;;;;6.63;3.05;;;17.80;80.00;;;;;;5074779;28;20068;-69
2021/09/21 11:12:54;;;;;;;4.35;1.65;;;17.80;79.80;;;;;;5078385;28;20056;-69
2021/09/21 11:15:26;;;;;;;5.28;2.80;;;17.80;79.70;;;;;;5078304;28;20476;-69
2021/09/21 11:18:07;;;;;;;8.15;2.28;;;17.90;79.80;;;;;;5073603;28;20029;-69
2021/09/21 11:20:33;;;;;;;6.43;3.33;;;17.90;79.70;;;;;;5076164;28;20031;-69
2021/09/21 11:23:01;;;;;;;6.43;3.22;;;18.00;79.70;;;;;;5072612;28;20472;-69
2021/09/21 11:25:29;;;;;;;4.22;2.92;;;18.00;79.70;;;;;;5075614;28;20487;-69
2021/09/21 11:27:56;;;;;;;5.25;3.00;;;18.00;79.70;;;;;;5079653;28;20036;-69
2021/09/21 11:30:22;;;;;;;4.97;3.00;;;18.00;79.70;;;;;;5076356;28;20044;-69
2021/09/21 11:32:48;;;;;;;4.47;3.05;;;18.00;79.70;;;;;;5081183;28;20031;-69
2021/09/21 11:35:16;;;;;;;7.53;3.22;;;18.10;79.70;;;;;;5078922;28;20032;-69
2021/09/21 11:37:51;;;;;;;10.30;2.75;;;18.10;79.70;;;;;;5070945;28;20051;-69
2021/09/21 11:40:34;;;;;;;4.00;2.60;;;18.10;79.50;;;;;;5077985;28;20629;-69
2021/09/21 11:43:00;;;;;;;6.13;3.50;;;18.10;79.30;;;;;;5072244;28;20043;-69
2021/09/21 11:45:28;;;;;;;5.57;3.58;;;18.20;79.30;;;;;;5086630;28;20337;-69
2021/09/21 11:47:54;;;;;;;3.25;1.80;;;18.20;79.00;;;;;;5074582;28;20041;-69
2021/09/21 11:50:29;;;;;;;5.88;3.28;;;18.20;79.00;;;;;;5086910;28;20060;-69
2021/09/21 11:52:58;;;;;;;4.68;3.15;;;18.30;79.00;;;;;;5085788;28;20033;-69
2021/09/21 11:55:28;;;;;;;6.43;2.22;;;18.30;78.90;;;;;;5073832;28;20492;-69
2021/09/21 11:57:55;;;;;;;4.07;2.50;;;18.30;78.70;;;;;;5076320;28;20043;-69
2021/09/21 12:00:31;;;;;;;4.00;2.45;;;18.40;78.70;;;;;;5079348;28;20037;-69
2021/09/21 12:03:12;;;;;;;8.07;2.67;;;18.50;78.60;;;;;;5080376;28;20032;-69
2021/09/21 12:05:40;;;;;;;7.50;2.53;;;18.40;78.60;;;;;;5084145;28;20032;-71
2021/09/21 12:08:31;;;;;;;9.73;3.00;;;18.50;78.60;;;;;;5085179;28;20024;-68
2021/09/21 12:11:03;;;;;;;5.18;2.78;;;18.50;78.50;;;;;;5077305;28;20051;-69
2021/09/21 12:13:29;;;;;;;3.80;1.85;;;18.50;78.50;;;;;;5087276;28;20471;-68
2021/09/21 12:15:57;;;;;;;6.32;2.70;;;18.50;78.50;;;;;;5088210;28;20031;-69
2021/09/21 12:18:25;;;;;;;1.63;1.48;;;18.50;78.60;;;;;;5079232;28;20486;-68
2021/09/21 12:21:17;;;;;;;4.50;1.95;;;18.60;78.70;;;;;;5078840;28;20050;-69
2021/09/21 12:23:46;;;;;;;3.90;1.95;;;18.60;79.30;;;;;;5078884;28;20040;-68
2021/09/21 12:26:15;;;;;;;4.82;2.72;;;18.60;78.60;;;;;;5078160;28;20089;-68
2021/09/21 12:28:43;;;;;;;5.75;2.70;;;18.60;78.60;;;;;;5085451;28;20494;-68
2021/09/21 12:31:29;;;;;;;4.60;2.83;;;18.60;78.60;;;;;;5081078;28;20758;-68
2021/09/21 12:33:57;;;;;;;6.18;2.30;;;18.70;78.60;;;;;;5084038;28;20476;-71
2021/09/21 12:36:29;;;;;;;6.57;3.33;;;18.70;78.50;;;;;;5087416;28;20067;-69
2021/09/21 12:39:03;;;;;;;4.00;2.33;;;18.70;78.50;;;;;;5072630;28;20058;-68
2021/09/21 12:41:39;;;;;;;5.53;3.30;;;18.70;78.30;;;;;;5075111;28;20028;-68
2021/09/21 12:44:07;;;;;;;9.57;3.80;;;18.70;78.40;;;;;;5074286;28;20063;-71
2021/09/21 12:46:33;;;;;;;7.25;2.88;;;18.70;78.50;;;;;;5080424;28;20039;-68
2021/09/21 12:48:59;;;;;;;8.00;2.90;;;18.70;78.50;;;;;;5076457;28;20047;-68
2021/09/21 12:51:41;;;;;;;6.57;2.28;;;18.70;78.50;;;;;;5084500;28;20558;-68
2021/09/21 12:54:11;;;;;;;8.18;3.10;;;18.70;78.60;;;;;;5072371;28;20612;-68
2021/09/21 12:56:39;;;;;;;6.63;2.95;;;18.70;78.60;;;;;;5071526;28;20028;-68
2021/09/21 12:59:11;;;;;;;3.75;2.03;;;18.80;78.70;;;;;;5073466;28;20033;-68